sensor_id;sensor_type;location;lat;lon;timestamp;pressure;altitude;pressure_sealevel;temperature;humidity
62617;BME280;62539;51.190;6.808;2023-05-07T00:00:20;101302.06;;;22.11;53.25
62617;BME280;62539;51.190;6.808;2023-05-07T00:02:46;101302.97;;;22.10;53.46
62617;BME280;62539;51.190;6.808;2023-05-07T00:05:12;101305.63;;;22.10;53.20
62617;BME280;62539;51.190;6.808;2023-05-07T00:07:38;101309.19;;;22.09;53.64
62617;BME280;62539;51.190;6.808;2023-05-07T00:10:04;101302.19;;;22.08;53.16
62617;BME280;62539;51.190;6.808;2023-05-07T00:12:32;101296.91;;;22.08;53.51
62617;BME280;62539;51.190;6.808;2023-05-07T00:15:02;101298.66;;;22.07;53.14
62617;BME280;62539;51.190;6.808;2023-05-07T00:17:29;101297.81;;;22.07;53.33
62617;BME280;62539;51.190;6.808;2023-05-07T00:19:54;101291.75;;;22.05;53.52
62617;BME280;62539;51.190;6.808;2023-05-07T00:22:20;101294.38;;;22.05;53.30
62617;BME280;62539;51.190;6.808;2023-05-07T00:24:46;101286.50;;;22.03;53.57
62617;BME280;62539;51.190;6.808;2023-05-07T00:27:11;101293.59;;;22.02;53.40
62617;BME280;62539;51.190;6.808;2023-05-07T00:29:37;101292.72;;;22.02;53.18
62617;BME280;62539;51.190;6.808;2023-05-07T00:32:02;101294.50;;;22.01;53.20
62617;BME280;62539;51.190;6.808;2023-05-07T00:34:28;101300.72;;;22.00;53.63
62617;BME280;62539;51.190;6.808;2023-05-07T00:36:53;101294.56;;;22.00;53.30
62617;BME280;62539;51.190;6.808;2023-05-07T00:39:18;101299.91;;;21.98;53.21
62617;BME280;62539;51.190;6.808;2023-05-07T00:41:44;101300.75;;;21.99;53.35
62617;BME280;62539;51.190;6.808;2023-05-07T00:44:10;101290.28;;;21.97;53.32
62617;BME280;62539;51.190;6.808;2023-05-07T00:46:35;101270.06;;;21.96;53.53
62617;BME280;62539;51.190;6.808;2023-05-07T00:49:01;101279.75;;;21.96;53.63
62617;BME280;62539;51.190;6.808;2023-05-07T00:51:27;101278.91;;;21.95;53.49
62617;BME280;62539;51.190;6.808;2023-05-07T00:53:53;101284.19;;;21.95;53.54
62617;BME280;62539;51.190;6.808;2023-05-07T00:56:21;101280.69;;;21.95;53.61
62617;BME280;62539;51.190;6.808;2023-05-07T00:58:48;101281.59;;;21.94;53.60
62617;BME280;62539;51.190;6.808;2023-05-07T01:01:13;101279.03;;;21.92;53.44
62617;BME280;62539;51.190;6.808;2023-05-07T01:03:41;101281.69;;;21.92;53.44
62617;BME280;62539;51.190;6.808;2023-05-07T01:06:08;101289.59;;;21.92;53.78
62617;BME280;62539;51.190;6.808;2023-05-07T01:08:38;101288.81;;;21.90;53.71
62617;BME280;62539;51.190;6.808;2023-05-07T01:11:06;101294.09;;;21.90;53.60
62617;BME280;62539;51.190;6.808;2023-05-07T01:13:34;101289.72;;;21.89;53.43
62617;BME280;62539;51.190;6.808;2023-05-07T01:16:02;101289.72;;;21.89;53.72
62617;BME280;62539;51.190;6.808;2023-05-07T01:18:28;101282.72;;;21.88;53.53
62617;BME280;62539;51.190;6.808;2023-05-07T01:20:57;101275.72;;;21.87;53.83
62617;BME280;62539;51.190;6.808;2023-05-07T01:23:25;101275.72;;;21.87;53.63
62617;BME280;62539;51.190;6.808;2023-05-07T01:25:53;101276.66;;;21.86;53.59
62617;BME280;62539;51.190;6.808;2023-05-07T01:28:19;101274.00;;;21.86;53.81
62617;BME280;62539;51.190;6.808;2023-05-07T01:30:47;101274.00;;;21.86;53.84
62617;BME280;62539;51.190;6.808;2023-05-07T01:33:19;101266.13;;;21.84;53.61
62617;BME280;62539;51.190;6.808;2023-05-07T01:35:53;101269.66;;;21.85;53.87
62617;BME280;62539;51.190;6.808;2023-05-07T01:38:21;101270.56;;;21.84;53.76
62617;BME280;62539;51.190;6.808;2023-05-07T01:40:48;101259.22;;;21.82;53.84
62617;BME280;62539;51.190;6.808;2023-05-07T01:43:14;101260.97;;;21.81;53.57
62617;BME280;62539;51.190;6.808;2023-05-07T01:45:40;101260.97;;;21.81;53.94
62617;BME280;62539;51.190;6.808;2023-05-07T01:48:09;101259.25;;;21.80;53.60
62617;BME280;62539;51.190;6.808;2023-05-07T01:50:36;101262.81;;;21.79;53.64
62617;BME280;62539;51.190;6.808;2023-05-07T01:53:02;101264.63;;;21.79;53.91
62617;BME280;62539;51.190;6.808;2023-05-07T01:55:27;101261.97;;;21.79;53.85
62617;BME280;62539;51.190;6.808;2023-05-07T01:57:53;101265.53;;;21.78;53.90
62617;BME280;62539;51.190;6.808;2023-05-07T02:00:19;101257.66;;;21.76;53.56
62617;BME280;62539;51.190;6.808;2023-05-07T02:02:44;101260.38;;;21.75;53.83
62617;BME280;62539;51.190;6.808;2023-05-07T02:05:10;101257.75;;;21.75;53.85
62617;BME280;62539;51.190;6.808;2023-05-07T02:07:35;101267.44;;;21.74;53.72
62617;BME280;62539;51.190;6.808;2023-05-07T02:10:01;101267.50;;;21.72;54.01
62617;BME280;62539;51.190;6.808;2023-05-07T02:12:28;101271.91;;;21.72;53.75
62617;BME280;62539;51.190;6.808;2023-05-07T02:14:53;101264.91;;;21.71;53.92
62617;BME280;62539;51.190;6.808;2023-05-07T02:17:18;101257.91;;;21.70;53.91
62617;BME280;62539;51.190;6.808;2023-05-07T02:19:44;101262.34;;;21.69;53.72
62617;BME280;62539;51.190;6.808;2023-05-07T02:22:09;101260.63;;;21.68;53.60
62617;BME280;62539;51.190;6.808;2023-05-07T02:24:35;101260.66;;;21.67;53.78
62617;BME280;62539;51.190;6.808;2023-05-07T02:27:00;101266.81;;;21.67;53.91
62617;BME280;62539;51.190;6.808;2023-05-07T02:29:27;101259.81;;;21.66;54.07
62617;BME280;62539;51.190;6.808;2023-05-07T02:31:52;101267.78;;;21.65;53.94
62617;BME280;62539;51.190;6.808;2023-05-07T02:34:19;101262.59;;;21.63;53.78
62617;BME280;62539;51.190;6.808;2023-05-07T02:36:45;101267.00;;;21.63;53.73
62617;BME280;62539;51.190;6.808;2023-05-07T02:39:12;101266.13;;;21.62;53.91
62617;BME280;62539;51.190;6.808;2023-05-07T02:41:38;101259.13;;;21.61;53.74
62617;BME280;62539;51.190;6.808;2023-05-07T02:44:04;101257.41;;;21.60;53.73
62617;BME280;62539;51.190;6.808;2023-05-07T02:46:29;101267.09;;;21.59;53.77
62617;BME280;62539;51.190;6.808;2023-05-07T02:48:54;101260.97;;;21.59;53.76
62617;BME280;62539;51.190;6.808;2023-05-07T02:51:22;101258.38;;;21.57;54.10
62617;BME280;62539;51.190;6.808;2023-05-07T02:53:48;101262.81;;;21.57;53.83
62617;BME280;62539;51.190;6.808;2023-05-07T02:56:13;101262.00;;;21.55;53.86
62617;BME280;62539;51.190;6.808;2023-05-07T02:58:39;101268.13;;;21.55;53.84
62617;BME280;62539;51.190;6.808;2023-05-07T03:01:05;101276.97;;;21.54;53.92
62617;BME280;62539;51.190;6.808;2023-05-07T03:03:31;101271.75;;;21.53;53.80
62617;BME280;62539;51.190;6.808;2023-05-07T03:05:56;101266.47;;;21.53;54.09
62617;BME280;62539;51.190;6.808;2023-05-07T03:08:22;101270.88;;;21.52;54.04
62617;BME280;62539;51.190;6.808;2023-05-07T03:10:47;101268.31;;;21.51;54.04
62617;BME280;62539;51.190;6.808;2023-05-07T03:13:13;101258.69;;;21.50;54.03
62617;BME280;62539;51.190;6.808;2023-05-07T03:15:38;101260.44;;;21.49;53.77
62617;BME280;62539;51.190;6.808;2023-05-07T03:18:04;101257.88;;;21.48;54.14
62617;BME280;62539;51.190;6.808;2023-05-07T03:20:29;101254.38;;;21.47;53.91
62617;BME280;62539;51.190;6.808;2023-05-07T03:22:56;101249.16;;;21.46;53.91
62617;BME280;62539;51.190;6.808;2023-05-07T03:25:21;101252.66;;;21.46;53.90
62617;BME280;62539;51.190;6.808;2023-05-07T03:27:47;101255.38;;;21.44;53.87
62617;BME280;62539;51.190;6.808;2023-05-07T03:30:12;101249.22;;;21.44;53.85
62617;BME280;62539;51.190;6.808;2023-05-07T03:32:38;101254.56;;;21.42;53.73
62617;BME280;62539;51.190;6.808;2023-05-07T03:35:04;101264.19;;;21.43;54.13
62617;BME280;62539;51.190;6.808;2023-05-07T03:37:29;101258.97;;;21.42;53.74
62617;BME280;62539;51.190;6.808;2023-05-07T03:39:55;101258.13;;;21.41;53.74
62617;BME280;62539;51.190;6.808;2023-05-07T03:42:20;101256.41;;;21.40;53.80
62617;BME280;62539;51.190;6.808;2023-05-07T03:44:46;101262.59;;;21.39;53.78
62617;BME280;62539;51.190;6.808;2023-05-07T03:47:11;101259.09;;;21.39;53.75
62617;BME280;62539;51.190;6.808;2023-05-07T03:49:38;101255.59;;;21.38;53.94
62617;BME280;62539;51.190;6.808;2023-05-07T03:52:04;101261.72;;;21.39;53.93
62617;BME280;62539;51.190;6.808;2023-05-07T03:54:30;101252.97;;;21.38;54.16
62617;BME280;62539;51.190;6.808;2023-05-07T03:56:55;101267.06;;;21.37;54.12
62617;BME280;62539;51.190;6.808;2023-05-07T03:59:21;101270.56;;;21.38;54.06
62617;BME280;62539;51.190;6.808;2023-05-07T04:01:47;101265.34;;;21.36;54.20
62617;BME280;62539;51.190;6.808;2023-05-07T04:04:13;101270.63;;;21.36;54.21
62617;BME280;62539;51.190;6.808;2023-05-07T04:06:39;101274.06;;;21.38;54.31
62617;BME280;62539;51.190;6.808;2023-05-07T04:09:05;101273.97;;;21.41;53.91
62617;BME280;62539;51.190;6.808;2023-05-07T04:11:31;101279.97;;;21.45;53.86
62617;BME280;62539;51.190;6.808;2023-05-07T04:13:57;101278.06;;;21.49;53.78
62617;BME280;62539;51.190;6.808;2023-05-07T04:16:22;101275.31;;;21.52;53.64
62617;BME280;62539;51.190;6.808;2023-05-07T04:18:47;101271.63;;;21.56;53.53
62617;BME280;62539;51.190;6.808;2023-05-07T04:21:17;101283.03;;;21.56;53.80
62617;BME280;62539;51.190;6.808;2023-05-07T04:23:44;101286.47;;;21.58;53.79
62617;BME280;62539;51.190;6.808;2023-05-07T04:26:10;101281.16;;;21.60;53.50
62617;BME280;62539;51.190;6.808;2023-05-07T04:28:36;101275.88;;;21.60;53.61
62617;BME280;62539;51.190;6.808;2023-05-07T04:31:01;101276.69;;;21.62;53.57
62617;BME280;62539;51.190;6.808;2023-05-07T04:33:27;101271.41;;;21.62;53.66
62617;BME280;62539;51.190;6.808;2023-05-07T04:35:52;101275.72;;;21.65;53.27
62617;BME280;62539;51.190;6.808;2023-05-07T04:38:18;101277.44;;;21.66;53.50
62617;BME280;62539;51.190;6.808;2023-05-07T04:40:44;101271.22;;;21.67;53.55
62617;BME280;62539;51.190;6.808;2023-05-07T04:43:10;101273.81;;;21.68;53.51
62617;BME280;62539;51.190;6.808;2023-05-07T04:45:36;101268.53;;;21.68;53.30
62617;BME280;62539;51.190;6.808;2023-05-07T04:48:02;101267.63;;;21.69;53.57
62617;BME280;62539;51.190;6.808;2023-05-07T04:50:27;101265.91;;;21.68;53.28
62617;BME280;62539;51.190;6.808;2023-05-07T04:52:52;101273.81;;;21.68;53.29
62617;BME280;62539;51.190;6.808;2023-05-07T04:55:18;101273.75;;;21.70;53.68
62617;BME280;62539;51.190;6.808;2023-05-07T04:57:43;101272.91;;;21.69;53.41
62617;BME280;62539;51.190;6.808;2023-05-07T05:00:09;101269.34;;;21.70;53.41
62617;BME280;62539;51.190;6.808;2023-05-07T05:02:35;101271.97;;;21.70;53.01
62617;BME280;62539;51.190;6.808;2023-05-07T05:05:01;101267.53;;;21.71;53.12
62617;BME280;62539;51.190;6.808;2023-05-07T05:07:29;101277.19;;;21.72;53.09
62617;BME280;62539;51.190;6.808;2023-05-07T05:09:55;101278.06;;;21.72;53.26
62617;BME280;62539;51.190;6.808;2023-05-07T05:12:20;101272.78;;;21.72;53.42
62617;BME280;62539;51.190;6.808;2023-05-07T05:14:46;101278.91;;;21.73;53.29
62617;BME280;62539;51.190;6.808;2023-05-07T05:17:11;101280.63;;;21.74;52.91
62617;BME280;62539;51.190;6.808;2023-05-07T05:19:36;101279.78;;;21.73;53.33
62617;BME280;62539;51.190;6.808;2023-05-07T05:22:02;101272.66;;;21.76;53.32
62617;BME280;62539;51.190;6.808;2023-05-07T05:24:29;101285.78;;;21.77;53.00
62617;BME280;62539;51.190;6.808;2023-05-07T05:26:55;101283.16;;;21.77;53.25
62617;BME280;62539;51.190;6.808;2023-05-07T05:29:21;101290.09;;;21.80;53.20
62617;BME280;62539;51.190;6.808;2023-05-07T05:31:46;101282.19;;;21.80;52.90
62617;BME280;62539;51.190;6.808;2023-05-07T05:34:12;101284.69;;;21.83;53.16
62617;BME280;62539;51.190;6.808;2023-05-07T05:36:37;101296.09;;;21.83;53.20
62617;BME280;62539;51.190;6.808;2023-05-07T05:39:02;101301.34;;;21.85;52.81
62617;BME280;62539;51.190;6.808;2023-05-07T05:41:29;101293.41;;;21.85;52.91
62617;BME280;62539;51.190;6.808;2023-05-07T05:43:54;101296.84;;;21.87;52.96
62617;BME280;62539;51.190;6.808;2023-05-07T05:46:20;101297.69;;;21.87;52.79
62617;BME280;62539;51.190;6.808;2023-05-07T05:48:45;101302.94;;;21.89;52.91
62617;BME280;62539;51.190;6.808;2023-05-07T05:51:10;101300.16;;;21.92;52.82
62617;BME280;62539;51.190;6.808;2023-05-07T05:53:36;101305.38;;;21.94;52.54
62617;BME280;62539;51.190;6.808;2023-05-07T05:56:02;101314.19;;;21.94;52.65
62617;BME280;62539;51.190;6.808;2023-05-07T05:58:27;101307.09;;;21.95;52.21
62617;BME280;62539;51.190;6.808;2023-05-07T06:00:53;101309.69;;;21.96;52.68
62617;BME280;62539;51.190;6.808;2023-05-07T06:03:18;101312.34;;;21.96;52.56
62617;BME280;62539;51.190;6.808;2023-05-07T06:05:44;101307.84;;;21.98;52.33
62617;BME280;62539;51.190;6.808;2023-05-07T06:08:09;101307.84;;;21.98;52.31
62617;BME280;62539;51.190;6.808;2023-05-07T06:10:36;101306.00;;;22.00;52.79
62617;BME280;62539;51.190;6.808;2023-05-07T06:13:02;101307.78;;;22.00;52.37
62617;BME280;62539;51.190;6.808;2023-05-07T06:15:28;101313.00;;;22.01;52.68
62617;BME280;62539;51.190;6.808;2023-05-07T06:17:53;101306.81;;;22.02;52.59
62617;BME280;62539;51.190;6.808;2023-05-07T06:20:20;101311.16;;;22.03;52.62
62617;BME280;62539;51.190;6.808;2023-05-07T06:22:46;101315.53;;;22.05;52.46
62617;BME280;62539;51.190;6.808;2023-05-07T06:25:11;101308.41;;;22.07;52.38
62617;BME280;62539;51.190;6.808;2023-05-07T06:27:37;101315.41;;;22.08;52.35
62617;BME280;62539;51.190;6.808;2023-05-07T06:30:02;101319.75;;;22.09;52.43
62617;BME280;62539;51.190;6.808;2023-05-07T06:32:28;101316.19;;;22.10;52.53
62617;BME280;62539;51.190;6.808;2023-05-07T06:34:53;101324.97;;;22.10;52.48
62617;BME280;62539;51.190;6.808;2023-05-07T06:37:19;101324.00;;;22.13;52.68
62617;BME280;62539;51.190;6.808;2023-05-07T06:39:44;101323.06;;;22.14;52.94
62617;BME280;62539;51.190;6.808;2023-05-07T06:42:09;101331.78;;;22.16;52.78
62617;BME280;62539;51.190;6.808;2023-05-07T06:44:35;101326.44;;;22.17;52.83
62617;BME280;62539;51.190;6.808;2023-05-07T06:47:00;101328.09;;;22.20;52.79
62617;BME280;62539;51.190;6.808;2023-05-07T06:49:26;101328.91;;;22.22;52.81
62617;BME280;62539;51.190;6.808;2023-05-07T06:51:51;101326.19;;;22.24;52.86
62617;BME280;62539;51.190;6.808;2023-05-07T06:54:17;101320.91;;;22.24;52.77
62617;BME280;62539;51.190;6.808;2023-05-07T06:56:43;101310.41;;;22.22;52.90
62617;BME280;62539;51.190;6.808;2023-05-07T06:59:09;101310.31;;;22.24;52.46
62617;BME280;62539;51.190;6.808;2023-05-07T07:01:34;101315.59;;;22.24;52.68
62617;BME280;62539;51.190;6.808;2023-05-07T07:03:59;101326.94;;;22.27;52.64
62617;BME280;62539;51.190;6.808;2023-05-07T07:06:25;101321.56;;;22.29;52.06
62617;BME280;62539;51.190;6.808;2023-05-07T07:08:51;101336.56;;;22.28;52.05
62617;BME280;62539;51.190;6.808;2023-05-07T07:11:16;101336.56;;;22.28;52.19
62617;BME280;62539;51.190;6.808;2023-05-07T07:13:41;101334.84;;;22.27;52.12
62617;BME280;62539;51.190;6.808;2023-05-07T07:16:08;101337.50;;;22.27;51.96
62617;BME280;62539;51.190;6.808;2023-05-07T07:18:33;101335.78;;;22.26;52.00
62617;BME280;62539;51.190;6.808;2023-05-07T07:20:58;101329.56;;;22.27;52.06
62617;BME280;62539;51.190;6.808;2023-05-07T07:23:24;101340.94;;;22.29;52.35
62617;BME280;62539;51.190;6.808;2023-05-07T07:25:50;101333.81;;;22.31;51.73
62617;BME280;62539;51.190;6.808;2023-05-07T07:28:15;101340.81;;;22.32;51.94
62617;BME280;62539;51.190;6.808;2023-05-07T07:30:41;101332.81;;;22.34;51.90
62617;BME280;62539;51.190;6.808;2023-05-07T07:33:06;101344.25;;;22.35;51.83
62617;BME280;62539;51.190;6.808;2023-05-07T07:35:32;101345.09;;;22.35;51.93
62617;BME280;62539;51.190;6.808;2023-05-07T07:37:58;101339.81;;;22.35;51.26
62617;BME280;62539;51.190;6.808;2023-05-07T07:40:24;101341.53;;;22.36;51.20
62617;BME280;62539;51.190;6.808;2023-05-07T07:42:50;101338.84;;;22.38;50.89
62617;BME280;62539;51.190;6.808;2023-05-07T07:45:16;101330.81;;;22.39;50.89
62617;BME280;62539;51.190;6.808;2023-05-07T07:47:41;101333.41;;;22.41;51.37
62617;BME280;62539;51.190;6.808;2023-05-07T07:50:07;101344.78;;;22.43;50.94
62617;BME280;62539;51.190;6.808;2023-05-07T07:52:33;101339.50;;;22.43;51.03
62617;BME280;62539;51.190;6.808;2023-05-07T07:54:59;101340.34;;;22.43;50.54
62617;BME280;62539;51.190;6.808;2023-05-07T07:57:25;101342.16;;;22.43;50.34
62617;BME280;62539;51.190;6.808;2023-05-07T07:59:51;101345.63;;;22.43;50.54
62617;BME280;62539;51.190;6.808;2023-05-07T08:02:17;101349.16;;;22.44;50.50
62617;BME280;62539;51.190;6.808;2023-05-07T08:04:42;101347.34;;;22.46;50.47
62617;BME280;62539;51.190;6.808;2023-05-07T08:07:11;101351.69;;;22.47;50.25
62617;BME280;62539;51.190;6.808;2023-05-07T08:09:37;101348.06;;;22.50;50.45
62617;BME280;62539;51.190;6.808;2023-05-07T08:12:04;101346.19;;;22.52;50.56
62617;BME280;62539;51.190;6.808;2023-05-07T08:14:30;101346.16;;;22.53;50.55
62617;BME280;62539;51.190;6.808;2023-05-07T08:16:56;101346.03;;;22.56;50.48
62617;BME280;62539;51.190;6.808;2023-05-07T08:19:21;101348.53;;;22.59;50.42
62617;BME280;62539;51.190;6.808;2023-05-07T08:21:47;101344.03;;;22.61;50.87
62617;BME280;62539;51.190;6.808;2023-05-07T08:24:13;101343.97;;;22.63;50.64
62617;BME280;62539;51.190;6.808;2023-05-07T08:26:39;101350.84;;;22.67;50.60
62617;BME280;62539;51.190;6.808;2023-05-07T08:29:05;101349.88;;;22.70;50.78
62617;BME280;62539;51.190;6.808;2023-05-07T08:31:31;101348.81;;;22.74;50.62
62617;BME280;62539;51.190;6.808;2023-05-07T08:33:57;101353.97;;;22.77;50.63
62617;BME280;62539;51.190;6.808;2023-05-07T08:36:23;101348.59;;;22.79;50.39
62617;BME280;62539;51.190;6.808;2023-05-07T08:38:49;101349.34;;;22.82;50.21
62617;BME280;62539;51.190;6.808;2023-05-07T08:41:15;101342.19;;;22.84;50.64
62617;BME280;62539;51.190;6.808;2023-05-07T08:43:41;101353.47;;;22.88;50.60
62617;BME280;62539;51.190;6.808;2023-05-07T08:46:09;101348.94;;;22.92;50.66
62617;BME280;62539;51.190;6.808;2023-05-07T08:48:35;101354.94;;;22.95;50.78
62617;BME280;62539;51.190;6.808;2023-05-07T08:51:01;101345.94;;;22.99;50.78
62617;BME280;62539;51.190;6.808;2023-05-07T08:53:27;101348.53;;;23.01;50.73
62617;BME280;62539;51.190;6.808;2023-05-07T08:55:53;101346.66;;;23.03;50.41
62617;BME280;62539;51.190;6.808;2023-05-07T08:58:19;101349.22;;;23.04;50.67
62617;BME280;62539;51.190;6.808;2023-05-07T09:00:44;101346.53;;;23.06;50.57
62617;BME280;62539;51.190;6.808;2023-05-07T09:03:11;101350.81;;;23.09;50.52
62617;BME280;62539;51.190;6.808;2023-05-07T09:05:38;101357.78;;;23.11;51.01
62617;BME280;62539;51.190;6.808;2023-05-07T09:08:05;101349.69;;;23.14;51.26
62617;BME280;62539;51.190;6.808;2023-05-07T09:10:33;101347.84;;;23.16;50.37
62617;BME280;62539;51.190;6.808;2023-05-07T09:12:59;101345.97;;;23.18;49.25
62617;BME280;62539;51.190;6.808;2023-05-07T09:15:25;101342.41;;;23.19;49.07
62617;BME280;62539;51.190;6.808;2023-05-07T09:17:51;101351.13;;;23.22;48.47
62617;BME280;62539;51.190;6.808;2023-05-07T09:20:18;101354.59;;;23.24;48.18
62617;BME280;62539;51.190;6.808;2023-05-07T09:22:43;101348.38;;;23.25;47.75
62617;BME280;62539;51.190;6.808;2023-05-07T09:25:09;101357.13;;;23.27;47.93
62617;BME280;62539;51.190;6.808;2023-05-07T09:27:35;101356.19;;;23.28;48.22
62617;BME280;62539;51.190;6.808;2023-05-07T09:30:05;101354.31;;;23.30;48.04
62617;BME280;62539;51.190;6.808;2023-05-07T09:32:34;101357.69;;;23.33;48.01
62617;BME280;62539;51.190;6.808;2023-05-07T09:35:03;101348.75;;;23.36;48.14
62617;BME280;62539;51.190;6.808;2023-05-07T09:37:30;101352.97;;;23.40;47.81
62617;BME280;62539;51.190;6.808;2023-05-07T09:39:57;101355.47;;;23.43;48.07
62617;BME280;62539;51.190;6.808;2023-05-07T09:42:23;101355.34;;;23.46;48.02
62617;BME280;62539;51.190;6.808;2023-05-07T09:44:52;101349.91;;;23.49;47.81
62617;BME280;62539;51.190;6.808;2023-05-07T09:47:24;101349.75;;;23.53;47.37
62617;BME280;62539;51.190;6.808;2023-05-07T09:49:49;101348.84;;;23.54;46.93
62617;BME280;62539;51.190;6.808;2023-05-07T09:52:20;101352.28;;;23.56;46.85
62617;BME280;62539;51.190;6.808;2023-05-07T09:54:46;101346.75;;;23.60;46.68
62617;BME280;62539;51.190;6.808;2023-05-07T09:57:15;101350.03;;;23.66;46.69
62617;BME280;62539;51.190;6.808;2023-05-07T09:59:43;101340.03;;;23.72;46.80
62617;BME280;62539;51.190;6.808;2023-05-07T10:02:10;101347.69;;;23.78;46.68
62617;BME280;62539;51.190;6.808;2023-05-07T10:04:36;101343.00;;;23.84;46.79
62617;BME280;62539;51.190;6.808;2023-05-07T10:07:03;101339.25;;;23.88;46.33
62617;BME280;62539;51.190;6.808;2023-05-07T10:09:30;101340.66;;;23.95;46.44
62617;BME280;62539;51.190;6.808;2023-05-07T10:11:57;101343.84;;;24.03;45.40
62617;BME280;62539;51.190;6.808;2023-05-07T10:14:24;101347.06;;;24.10;44.81
62617;BME280;62539;51.190;6.808;2023-05-07T10:16:50;101338.72;;;24.18;44.74
62617;BME280;62539;51.190;6.808;2023-05-07T10:19:18;101337.47;;;24.25;44.52
62617;BME280;62539;51.190;6.808;2023-05-07T10:21:50;101331.97;;;24.30;44.52
62617;BME280;62539;51.190;6.808;2023-05-07T10:24:25;101335.16;;;24.36;44.42
62617;BME280;62539;51.190;6.808;2023-05-07T10:26:55;101334.84;;;24.43;44.37
62617;BME280;62539;51.190;6.808;2023-05-07T10:29:42;101334.69;;;24.46;44.05
62617;BME280;62539;51.190;6.808;2023-05-07T10:35:26;101339.34;;;24.58;44.57
62617;BME280;62539;51.190;6.808;2023-05-07T10:37:56;101332.19;;;24.60;44.63
62617;BME280;62539;51.190;6.808;2023-05-07T10:40:22;101332.03;;;24.63;44.12
62617;BME280;62539;51.190;6.808;2023-05-07T10:42:58;101333.50;;;24.69;43.94
62617;BME280;62539;51.190;6.808;2023-05-07T10:45:26;101332.44;;;24.73;44.01
62617;BME280;62539;51.190;6.808;2023-05-07T10:48:09;101339.16;;;24.80;44.36
62617;BME280;62539;51.190;6.808;2023-05-07T10:50:40;101339.66;;;24.87;44.15
62617;BME280;62539;51.190;6.808;2023-05-07T10:55:46;101322.91;;;24.87;44.70
62617;BME280;62539;51.190;6.808;2023-05-07T10:58:22;101317.59;;;24.87;44.36
62617;BME280;62539;51.190;6.808;2023-05-07T11:00:57;101318.28;;;24.90;44.66
62617;BME280;62539;51.190;6.808;2023-05-07T11:03:25;101321.53;;;24.95;44.52
62617;BME280;62539;51.190;6.808;2023-05-07T11:06:11;101321.38;;;24.99;44.70
62617;BME280;62539;51.190;6.808;2023-05-07T11:09:05;101316.06;;;24.99;44.74
62617;BME280;62539;51.190;6.808;2023-05-07T11:14:10;101315.22;;;24.98;44.67
62617;BME280;62539;51.190;6.808;2023-05-07T11:16:36;101317.97;;;24.97;44.57
62617;BME280;62539;51.190;6.808;2023-05-07T11:19:03;101313.59;;;24.95;44.79
62617;BME280;62539;51.190;6.808;2023-05-07T11:24:03;101309.22;;;24.94;45.28
62617;BME280;62539;51.190;6.808;2023-05-07T11:26:41;101314.53;;;24.94;45.02
62617;BME280;62539;51.190;6.808;2023-05-07T11:31:42;101315.41;;;24.95;45.60
62617;BME280;62539;51.190;6.808;2023-05-07T11:34:08;101309.22;;;24.94;45.68
62617;BME280;62539;51.190;6.808;2023-05-07T11:36:33;101305.63;;;24.95;45.67
62617;BME280;62539;51.190;6.808;2023-05-07T11:38:59;101300.31;;;24.95;45.61
62617;BME280;62539;51.190;6.808;2023-05-07T11:41:35;101309.22;;;24.94;45.35
62617;BME280;62539;51.190;6.808;2023-05-07T11:44:02;101313.75;;;24.92;45.69
62617;BME280;62539;51.190;6.808;2023-05-07T11:46:28;101312.97;;;24.90;45.59
62617;BME280;62539;51.190;6.808;2023-05-07T11:48:55;101307.75;;;24.89;45.66
62617;BME280;62539;51.190;6.808;2023-05-07T11:51:23;101309.72;;;24.85;46.08
62617;BME280;62539;51.190;6.808;2023-05-07T11:53:51;101308.09;;;24.83;45.76
62617;BME280;62539;51.190;6.808;2023-05-07T11:56:18;101309.97;;;24.80;45.82
62617;BME280;62539;51.190;6.808;2023-05-07T11:58:45;101305.66;;;24.78;45.91
62617;BME280;62539;51.190;6.808;2023-05-07T12:01:13;101312.94;;;24.74;46.54
62617;BME280;62539;51.190;6.808;2023-05-07T12:03:43;101314.84;;;24.71;46.47
62617;BME280;62539;51.190;6.808;2023-05-07T12:06:11;101315.00;;;24.67;46.37
62617;BME280;62539;51.190;6.808;2023-05-07T12:08:39;101310.81;;;24.63;46.77
62617;BME280;62539;51.190;6.808;2023-05-07T12:11:14;101317.97;;;24.61;46.55
62617;BME280;62539;51.190;6.808;2023-05-07T12:13:43;101321.72;;;24.57;46.60
62617;BME280;62539;51.190;6.808;2023-05-07T12:16:09;101319.22;;;24.54;46.85
62617;BME280;62539;51.190;6.808;2023-05-07T12:18:36;101328.22;;;24.51;47.25
62617;BME280;62539;51.190;6.808;2023-05-07T12:21:03;101318.63;;;24.49;47.22
62617;BME280;62539;51.190;6.808;2023-05-07T12:23:30;101326.72;;;24.46;47.47
62617;BME280;62539;51.190;6.808;2023-05-07T12:25:55;101325.94;;;24.44;47.56
62617;BME280;62539;51.190;6.808;2023-05-07T12:28:21;101322.50;;;24.42;47.17
62617;BME280;62539;51.190;6.808;2023-05-07T12:30:47;101322.66;;;24.39;47.31
62617;BME280;62539;51.190;6.808;2023-05-07T12:33:20;101327.19;;;24.36;47.65
62617;BME280;62539;51.190;6.808;2023-05-07T12:35:49;101318.56;;;24.33;47.50
62617;BME280;62539;51.190;6.808;2023-05-07T12:38:16;101330.09;;;24.32;47.77
62617;BME280;62539;51.190;6.808;2023-05-07T12:40:45;101322.28;;;24.29;47.49
62617;BME280;62539;51.190;6.808;2023-05-07T12:45:46;101326.88;;;24.25;47.73
62617;BME280;62539;51.190;6.808;2023-05-07T12:48:14;101323.44;;;24.23;47.90
62617;BME280;62539;51.190;6.808;2023-05-07T12:50:39;101325.31;;;24.21;48.10
62617;BME280;62539;51.190;6.808;2023-05-07T12:53:07;101323.69;;;24.18;48.19
62617;BME280;62539;51.190;6.808;2023-05-07T12:55:50;101328.22;;;24.16;48.03
62617;BME280;62539;51.190;6.808;2023-05-07T12:58:19;101329.94;;;24.17;48.34
62617;BME280;62539;51.190;6.808;2023-05-07T13:00:51;101327.28;;;24.17;48.17
62617;BME280;62539;51.190;6.808;2023-05-07T13:03:24;101322.97;;;24.15;47.97